Time;durP1;ratioP1;P1;durP2;ratioP2;P2;SDS_P1;SDS_P2;PMS_P1;PMS_P2;Temp;Humidity;BMP_temperature;BMP_pressure;BME280_temperature;BME280_humidity;BME280_pressure;Samples;Min_cycle;Max_cycle;Signal;HPM_P1;HPM_P2
2024/02/20 00:00:38;;;;;;;27.77;4.13;;;8.30;99.90;;;;;;4983167;28;20187;-84
2024/02/20 00:03:04;;;;;;;25.00;3.50;;;8.30;99.90;;;;;;5000952;28;20640;-84
2024/02/20 00:05:31;;;;;;;32.00;4.10;;;8.30;99.90;;;;;;4999366;28;20539;-84
2024/02/20 00:08:02;;;;;;;25.90;4.47;;;8.30;99.90;;;;;;5000972;28;20172;-84
2024/02/20 00:10:27;;;;;;;30.90;4.60;;;8.20;99.90;;;;;;4983157;28;20219;-85
2024/02/20 00:12:53;;;;;;;27.00;4.87;;;8.10;99.90;;;;;;5093927;22;20283;-84
2024/02/20 00:15:19;;;;;;;30.63;3.90;;;8.10;99.90;;;;;;5021745;28;20166;-83
2024/02/20 00:17:47;;;;;;;38.70;4.60;;;8.10;99.90;;;;;;5039026;28;20176;-83
2024/02/20 00:20:13;;;;;;;27.60;3.05;;;8.10;99.90;;;;;;5037551;28;20209;-83
2024/02/20 00:22:39;;;;;;;23.07;4.10;;;8.10;99.90;;;;;;5038892;28;20192;-82
2024/02/20 00:25:05;;;;;;;26.80;3.43;;;8.10;99.90;;;;;;5038558;28;20194;-83
2024/02/20 00:27:31;;;;;;;29.45;4.07;;;8.10;99.90;;;;;;5038525;28;20534;-83
2024/02/20 00:29:57;;;;;;;29.65;3.80;;;8.00;99.90;;;;;;5038464;28;20182;-83
2024/02/20 00:32:23;;;;;;;26.85;4.07;;;7.90;99.90;;;;;;5037860;28;20190;-83
2024/02/20 00:34:49;;;;;;;31.17;6.60;;;7.90;99.90;;;;;;5037490;28;20649;-83
2024/02/20 00:37:15;;;;;;;26.00;4.23;;;7.90;99.90;;;;;;5037031;28;20172;-83
2024/02/20 00:39:41;;;;;;;32.78;4.80;;;7.80;99.90;;;;;;5038164;28;20257;-83
2024/02/20 00:42:07;;;;;;;22.20;3.10;;;7.90;99.90;;;;;;5037118;28;20590;-83
2024/02/20 00:44:33;;;;;;;26.17;3.63;;;7.80;99.90;;;;;;5019761;28;20496;-83
2024/02/20 00:46:59;;;;;;;25.40;3.67;;;7.80;99.90;;;;;;5037630;28;20840;-83
2024/02/20 00:49:25;;;;;;;29.60;3.30;;;7.80;99.90;;;;;;5037827;28;20197;-83
2024/02/20 00:51:51;;;;;;;27.90;3.77;;;7.80;99.90;;;;;;5037579;28;20655;-83
2024/02/20 00:54:17;;;;;;;22.80;3.97;;;7.80;99.90;;;;;;5036701;28;20577;-83
2024/02/20 00:56:44;;;;;;;20.83;3.42;;;7.80;99.90;;;;;;5038132;28;20162;-83
2024/02/20 00:59:09;;;;;;;27.33;4.18;;;7.80;99.90;;;;;;5037098;28;20186;-83
2024/02/20 01:01:35;;;;;;;21.83;3.43;;;7.80;99.90;;;;;;5035881;28;20248;-82
2024/02/20 01:04:01;;;;;;;20.63;4.40;;;7.90;99.90;;;;;;5037577;28;20162;-83
2024/02/20 01:06:26;;;;;;;25.33;4.53;;;7.90;99.90;;;;;;5019633;28;20204;-82
2024/02/20 01:08:52;;;;;;;27.37;3.93;;;7.80;99.90;;;;;;5037852;28;20166;-82
2024/02/20 01:11:18;;;;;;;25.70;4.00;;;7.80;99.90;;;;;;5037530;28;20273;-83
2024/02/20 01:13:43;;;;;;;27.37;4.20;;;7.80;99.90;;;;;;5019797;28;20205;-83
2024/02/20 01:16:09;;;;;;;24.30;4.17;;;7.70;99.90;;;;;;5037565;28;20515;-82
2024/02/20 01:18:35;;;;;;;26.73;4.37;;;7.70;99.90;;;;;;5037108;28;20165;-83
2024/02/20 01:21:01;;;;;;;22.83;3.60;;;7.80;99.90;;;;;;5037330;28;20528;-83
2024/02/20 01:23:26;;;;;;;22.85;4.30;;;7.70;99.90;;;;;;5037045;28;20169;-83
2024/02/20 01:25:52;;;;;;;21.40;3.90;;;7.70;99.90;;;;;;5036926;28;20169;-83
2024/02/20 01:28:18;;;;;;;22.57;3.30;;;7.70;99.90;;;;;;5037075;28;20192;-83
2024/02/20 01:30:44;;;;;;;21.17;2.97;;;7.60;99.90;;;;;;5038384;28;20189;-84
2024/02/20 01:33:10;;;;;;;26.55;4.47;;;7.60;99.90;;;;;;5038139;28;20273;-84
2024/02/20 01:35:38;;;;;;;25.70;4.50;;;7.50;99.90;;;;;;5038600;28;20200;-83
2024/02/20 01:38:04;;;;;;;21.20;3.40;;;7.50;99.90;;;;;;5020233;28;20175;-84
2024/02/20 01:40:30;;;;;;;19.42;3.50;;;7.40;99.90;;;;;;5020646;28;20186;-83
2024/02/20 01:43:00;;;;;;;24.00;3.73;;;7.20;99.90;;;;;;5037712;28;20265;-83
2024/02/20 01:45:28;;;;;;;23.08;3.95;;;7.10;99.90;;;;;;5020142;28;20648;-83
2024/02/20 01:47:55;;;;;;;26.38;4.03;;;7.10;99.90;;;;;;5038380;28;20177;-83
2024/02/20 01:50:21;;;;;;;36.92;4.25;;;7.20;99.90;;;;;;5037695;28;20182;-84
2024/02/20 01:52:47;;;;;;;27.63;3.90;;;7.30;99.90;;;;;;5037526;28;20182;-84
2024/02/20 01:55:14;;;;;;;26.27;4.53;;;7.20;99.90;;;;;;5037890;28;20185;-83
2024/02/20 01:57:39;;;;;;;28.38;4.03;;;7.20;99.90;;;;;;5037699;28;20458;-84
2024/02/20 02:00:09;;;;;;;28.13;4.00;;;7.20;99.90;;;;;;5037582;28;20185;-83
2024/02/20 02:02:35;;;;;;;25.60;3.97;;;7.40;99.90;;;;;;5036310;28;20433;-83
2024/02/20 02:05:00;;;;;;;24.80;4.00;;;7.40;99.90;;;;;;5019898;28;20177;-83
2024/02/20 02:07:26;;;;;;;18.70;3.17;;;7.40;99.90;;;;;;5037654;28;20416;-83
2024/02/20 02:09:52;;;;;;;21.33;3.50;;;7.40;99.90;;;;;;5019020;28;20677;-83
2024/02/20 02:12:18;;;;;;;19.63;3.37;;;7.50;99.90;;;;;;5037729;28;20225;-83
2024/02/20 02:14:47;;;;;;;24.88;4.70;;;7.40;99.90;;;;;;5037383;28;20716;-83
2024/02/20 02:17:13;;;;;;;24.63;4.05;;;7.40;99.90;;;;;;5037330;28;20162;-83
2024/02/20 02:19:39;;;;;;;21.83;3.85;;;7.40;99.90;;;;;;5036835;28;20189;-83
2024/02/20 02:22:06;;;;;;;27.05;3.60;;;7.40;99.90;;;;;;5036979;28;20627;-83
2024/02/20 02:24:34;;;;;;;23.33;4.05;;;7.40;99.90;;;;;;5036180;28;20174;-83
2024/02/20 02:27:00;;;;;;;19.95;3.20;;;7.40;99.90;;;;;;5037561;28;20165;-83
2024/02/20 02:29:26;;;;;;;23.10;3.95;;;7.30;99.90;;;;;;5037119;28;20635;-83
2024/02/20 02:31:52;;;;;;;29.40;4.27;;;7.30;99.90;;;;;;5036838;28;20165;-83
2024/02/20 02:34:17;;;;;;;26.30;4.93;;;7.20;99.90;;;;;;5035616;28;20256;-84
2024/02/20 02:36:44;;;;;;;24.23;5.77;;;7.10;99.90;;;;;;5037015;28;20169;-83
2024/02/20 02:39:10;;;;;;;22.95;3.40;;;7.20;99.90;;;;;;5036102;28;20158;-83
2024/02/20 02:41:36;;;;;;;28.30;4.35;;;7.10;99.90;;;;;;5034469;28;20271;-83
2024/02/20 02:44:02;;;;;;;22.50;3.50;;;7.10;99.90;;;;;;5035586;28;20229;-83
2024/02/20 02:46:28;;;;;;;20.67;3.60;;;7.00;99.90;;;;;;5035667;28;20304;-83
2024/02/20 02:48:54;;;;;;;22.63;4.22;;;7.00;99.90;;;;;;5033905;28;20419;-83
2024/02/20 02:51:20;;;;;;;24.75;4.75;;;7.00;99.90;;;;;;5035377;28;20186;-83
2024/02/20 02:53:46;;;;;;;28.77;6.07;;;7.20;99.90;;;;;;5035259;28;20260;-83
2024/02/20 02:56:12;;;;;;;27.77;4.30;;;7.20;99.90;;;;;;5035795;28;20396;-83
2024/02/20 02:58:40;;;;;;;20.33;4.53;;;7.20;99.90;;;;;;5035240;28;20168;-83
2024/02/20 03:01:07;;;;;;;24.00;4.70;;;7.20;99.90;;;;;;5033946;28;20435;-83
2024/02/20 03:03:33;;;;;;;21.85;4.40;;;7.20;99.90;;;;;;5035365;28;20166;-83
2024/02/20 03:06:06;;;;;;;24.40;5.03;;;7.20;99.90;;;;;;5017628;28;20545;-82
2024/02/20 03:08:33;;;;;;;27.15;5.80;;;7.20;99.90;;;;;;5035654;28;20196;-83
2024/02/20 03:10:59;;;;;;;28.35;5.80;;;7.20;99.90;;;;;;5017913;28;20200;-83
2024/02/20 03:13:25;;;;;;;36.42;6.03;;;7.30;99.90;;;;;;5035071;28;20332;-83
2024/02/20 03:15:51;;;;;;;27.85;5.95;;;7.30;99.90;;;;;;5035205;28;20158;-82
2024/02/20 03:18:17;;;;;;;24.53;6.50;;;7.30;99.90;;;;;;5035049;28;20682;-83
2024/02/20 03:20:43;;;;;;;29.80;7.10;;;7.30;99.90;;;;;;5035952;28;20613;-83
2024/02/20 03:23:08;;;;;;;35.10;9.32;;;7.30;99.90;;;;;;5039346;28;20634;-83
2024/02/20 03:25:34;;;;;;;23.63;6.23;;;7.30;99.90;;;;;;5039042;28;20172;-83
2024/02/20 03:28:03;;;;;;;34.20;6.60;;;7.30;99.90;;;;;;5039485;28;20590;-83
2024/02/20 03:30:29;;;;;;;26.92;7.05;;;7.30;99.90;;;;;;5039019;28;20432;-83
2024/02/20 03:32:55;;;;;;;34.90;7.47;;;7.20;99.90;;;;;;5021337;28;20215;-83
2024/02/20 03:35:21;;;;;;;32.13;6.80;;;7.20;99.90;;;;;;5038933;28;20162;-83
2024/02/20 03:37:48;;;;;;;30.92;7.55;;;7.30;99.90;;;;;;5039092;28;20936;-83
2024/02/20 03:40:14;;;;;;;36.05;7.97;;;7.40;99.90;;;;;;5037307;28;20217;-83
2024/02/20 03:42:40;;;;;;;52.58;8.18;;;7.40;99.90;;;;;;5039050;28;20245;-83
2024/02/20 03:45:06;;;;;;;30.40;7.97;;;7.40;99.90;;;;;;5037825;28;20336;-83
2024/02/20 03:47:32;;;;;;;27.00;6.43;;;7.50;99.90;;;;;;5021602;28;20165;-82
2024/02/20 03:49:57;;;;;;;24.80;6.60;;;7.40;99.90;;;;;;5039869;28;20189;-83
2024/02/20 03:52:23;;;;;;;38.03;8.53;;;7.40;99.90;;;;;;5041257;28;20957;-83
2024/02/20 03:54:49;;;;;;;26.43;6.90;;;7.50;99.90;;;;;;5023039;28;20265;-83
2024/02/20 03:57:14;;;;;;;35.10;6.80;;;7.60;99.90;;;;;;5040616;28;20158;-83
2024/02/20 03:59:40;;;;;;;22.73;5.87;;;7.60;99.90;;;;;;5038782;28;20685;-83
2024/02/20 04:02:06;;;;;;;40.27;7.60;;;7.60;99.90;;;;;;5039899;28;20702;-83
2024/02/20 04:04:35;;;;;;;23.52;6.25;;;7.60;99.90;;;;;;5039885;28;20203;-83
2024/02/20 04:07:04;;;;;;;27.02;7.15;;;7.70;99.90;;;;;;5039990;28;20161;-83
2024/02/20 04:09:30;;;;;;;34.95;7.90;;;7.70;99.90;;;;;;5039791;28;20169;-83
2024/02/20 04:11:56;;;;;;;31.05;7.78;;;7.70;99.90;;;;;;5021641;28;20189;-83
2024/02/20 04:14:22;;;;;;;29.40;7.38;;;7.60;99.90;;;;;;5039728;28;20211;-83
2024/02/20 04:16:47;;;;;;;29.70;6.37;;;7.60;99.90;;;;;;5038507;28;20193;-83
2024/02/20 04:19:13;;;;;;;40.20;8.00;;;7.60;99.90;;;;;;5039527;28;20166;-83
2024/02/20 04:21:39;;;;;;;26.50;8.00;;;7.50;99.90;;;;;;5038126;28;20189;-83
2024/02/20 04:24:07;;;;;;;25.90;7.83;;;7.60;99.90;;;;;;5039329;28;20196;-83
2024/02/20 04:26:33;;;;;;;24.15;8.15;;;7.50;99.90;;;;;;5039125;28;20197;-84
2024/02/20 04:28:59;;;;;;;21.67;7.67;;;7.50;99.90;;;;;;5038225;28;20170;-83
2024/02/20 04:31:24;;;;;;;25.33;6.70;;;7.40;99.90;;;;;;5037903;28;20216;-83
2024/02/20 04:33:50;;;;;;;29.73;7.17;;;7.30;99.90;;;;;;5038399;28;20212;-83
2024/02/20 04:36:15;;;;;;;31.73;8.00;;;7.20;99.90;;;;;;5021897;28;20170;-83
2024/02/20 04:38:41;;;;;;;27.10;7.53;;;7.10;99.90;;;;;;5039252;28;20166;-83
2024/02/20 04:41:07;;;;;;;34.60;7.37;;;7.00;99.90;;;;;;5038481;28;20186;-83
2024/02/20 04:43:34;;;;;;;24.20;6.75;;;7.00;99.90;;;;;;5039104;28;20459;-83
2024/02/20 04:46:00;;;;;;;26.73;6.90;;;6.90;99.90;;;;;;5038954;28;20248;-83
2024/02/20 04:48:25;;;;;;;30.80;7.50;;;6.90;99.90;;;;;;5039577;28;20209;-83
2024/02/20 04:50:53;;;;;;;27.57;7.87;;;6.80;99.90;;;;;;5038731;28;20190;-83
2024/02/20 04:53:21;;;;;;;28.20;6.95;;;6.80;99.90;;;;;;5021178;28;20201;-83
2024/02/20 04:55:47;;;;;;;23.80;7.03;;;6.80;99.90;;;;;;5036994;28;20201;-83
2024/02/20 04:58:12;;;;;;;23.33;7.97;;;6.80;99.90;;;;;;5038788;28;20200;-83
2024/02/20 05:00:38;;;;;;;25.50;6.80;;;6.70;99.90;;;;;;5037373;28;20189;-83
2024/02/20 05:03:04;;;;;;;20.57;6.80;;;6.70;99.90;;;;;;5038688;28;20170;-83
2024/02/20 05:05:31;;;;;;;24.33;7.20;;;6.70;99.90;;;;;;5038164;28;20631;-82
2024/02/20 05:07:57;;;;;;;24.60;7.90;;;6.60;99.90;;;;;;5037093;28;20173;-83
2024/02/20 05:10:23;;;;;;;32.75;7.32;;;6.60;99.90;;;;;;5019467;28;20193;-83
2024/02/20 05:12:48;;;;;;;24.40;7.30;;;6.50;99.90;;;;;;5019714;28;20745;-82
2024/02/20 05:15:14;;;;;;;24.23;7.13;;;6.50;99.90;;;;;;5037537;28;20530;-82
2024/02/20 05:17:40;;;;;;;27.27;8.33;;;6.40;99.90;;;;;;5035627;28;20538;-82
2024/02/20 05:20:07;;;;;;;23.47;8.63;;;6.40;99.90;;;;;;5019261;28;20276;-82
2024/02/20 05:22:32;;;;;;;27.60;8.05;;;6.50;99.90;;;;;;5037003;28;20166;-82
2024/02/20 05:24:58;;;;;;;24.40;8.40;;;6.50;99.90;;;;;;5018940;28;20230;-83
2024/02/20 05:27:24;;;;;;;37.40;8.00;;;6.50;99.90;;;;;;5035331;28;20174;-82
2024/02/20 05:29:49;;;;;;;27.57;7.87;;;6.40;99.90;;;;;;5036494;28;20192;-83
2024/02/20 05:32:15;;;;;;;31.23;8.50;;;6.50;99.90;;;;;;5036600;28;20190;-83
2024/02/20 05:34:41;;;;;;;25.10;8.33;;;6.50;99.90;;;;;;5036753;28;20546;-83
2024/02/20 05:37:07;;;;;;;25.07;7.73;;;6.50;99.90;;;;;;5036255;28;20154;-82
2024/02/20 05:39:32;;;;;;;31.17;8.10;;;6.40;99.90;;;;;;5036336;28;20432;-82
2024/02/20 05:41:58;;;;;;;28.63;8.57;;;6.40;99.90;;;;;;5036875;28;20404;-82
2024/02/20 05:44:24;;;;;;;27.73;7.83;;;6.40;99.90;;;;;;5018968;28;20173;-82
2024/02/20 05:46:49;;;;;;;27.10;7.77;;;6.40;99.90;;;;;;5036302;28;20216;-83
2024/02/20 05:49:15;;;;;;;26.87;8.00;;;6.30;99.90;;;;;;5036828;28;20249;-82
2024/02/20 05:51:41;;;;;;;35.17;8.90;;;6.30;99.90;;;;;;5035211;28;20415;-82
2024/02/20 05:54:06;;;;;;;25.30;8.60;;;6.30;99.90;;;;;;5035033;28;20200;-83
2024/02/20 05:56:32;;;;;;;28.10;8.70;;;6.30;99.90;;;;;;5036202;28;20158;-83
2024/02/20 05:58:58;;;;;;;28.67;7.87;;;6.20;99.90;;;;;;5035878;28;20166;-83
2024/02/20 06:01:24;;;;;;;27.17;7.23;;;6.20;99.90;;;;;;5036115;28;20256;-83
2024/02/20 06:03:49;;;;;;;28.70;8.30;;;6.20;99.90;;;;;;5034951;28;20424;-82
2024/02/20 06:06:15;;;;;;;26.03;7.07;;;6.20;99.90;;;;;;5036297;28;20295;-83
2024/02/20 06:08:42;;;;;;;33.33;8.60;;;6.20;99.90;;;;;;5036104;28;20181;-82
2024/02/20 06:11:21;;;;;;;26.10;6.57;;;6.20;99.90;;;;;;5035823;28;20599;-83
2024/02/20 06:13:47;;;;;;;24.50;7.45;;;6.10;99.90;;;;;;5035293;28;20212;-83
2024/02/20 06:16:12;;;;;;;29.63;8.33;;;6.10;99.90;;;;;;5037020;28;20248;-83
2024/02/20 06:18:38;;;;;;;24.10;6.80;;;6.10;99.90;;;;;;5037489;28;20220;-83
2024/02/20 06:21:04;;;;;;;26.93;7.60;;;6.10;99.90;;;;;;5036982;28;20237;-83
2024/02/20 06:23:30;;;;;;;26.65;7.75;;;6.10;99.90;;;;;;5036899;28;20400;-83
2024/02/20 06:25:56;;;;;;;25.17;7.50;;;6.10;99.90;;;;;;5037285;28;20193;-83
2024/02/20 06:28:21;;;;;;;24.90;6.53;;;6.00;99.90;;;;;;5035887;28;20212;-83
2024/02/20 06:30:47;;;;;;;32.40;7.07;;;6.10;99.90;;;;;;5036996;28;20196;-83
2024/02/20 06:33:14;;;;;;;29.20;7.78;;;6.10;99.90;;;;;;5036872;28;20189;-82
2024/02/20 06:35:39;;;;;;;26.23;7.03;;;6.10;99.90;;;;;;5036471;28;20173;-82
2024/02/20 06:38:05;;;;;;;28.07;7.57;;;6.20;99.90;;;;;;5035037;28;20170;-82
2024/02/20 06:40:34;;;;;;;26.60;7.47;;;6.20;99.90;;;;;;5036126;28;20186;-82
2024/02/20 06:42:59;;;;;;;28.58;7.90;;;6.20;99.90;;;;;;5036405;28;20639;-83
2024/02/20 06:45:27;;;;;;;28.43;8.10;;;6.20;99.90;;;;;;5018765;28;20228;-82
2024/02/20 06:47:53;;;;;;;29.92;8.65;;;6.20;99.90;;;;;;5035222;28;20201;-82
2024/02/20 06:50:22;;;;;;;29.90;8.30;;;6.20;99.90;;;;;;5036639;28;20227;-82
2024/02/20 06:52:47;;;;;;;28.02;7.05;;;6.20;99.90;;;;;;5035007;28;20457;-82
2024/02/20 06:55:14;;;;;;;32.23;8.00;;;6.30;99.90;;;;;;5018228;28;20166;-82
2024/02/20 06:57:43;;;;;;;29.23;8.15;;;6.40;99.90;;;;;;5036260;28;20384;-82
2024/02/20 07:00:14;;;;;;;25.98;7.35;;;6.30;99.90;;;;;;5035849;28;20177;-83
2024/02/20 07:02:41;;;;;;;36.38;8.93;;;6.40;99.90;;;;;;5036388;28;20200;-82
2024/02/20 07:05:10;;;;;;;28.45;9.18;;;6.40;99.90;;;;;;5036118;28;20162;-82
2024/02/20 07:07:37;;;;;;;24.67;7.63;;;6.40;99.90;;;;;;5037112;28;20170;-83
2024/02/20 07:10:08;;;;;;;29.20;7.60;;;6.50;99.90;;;;;;5037279;28;20190;-83
2024/02/20 07:12:34;;;;;;;33.40;9.30;;;6.50;99.90;;;;;;5037529;28;20198;-83
2024/02/20 07:15:02;;;;;;;31.87;9.17;;;6.60;99.90;;;;;;5036120;28;20176;-83
2024/02/20 07:17:27;;;;;;;29.90;9.13;;;6.60;99.90;;;;;;5037369;28;20405;-82
2024/02/20 07:19:54;;;;;;;30.87;9.13;;;6.70;99.90;;;;;;5036700;28;20563;-83
2024/02/20 07:22:20;;;;;;;32.70;8.52;;;6.80;99.90;;;;;;5036012;28;20171;-83
2024/02/20 07:24:46;;;;;;;36.83;9.33;;;6.90;99.90;;;;;;5036941;28;20650;-83
2024/02/20 07:27:11;;;;;;;31.93;9.20;;;7.00;99.90;;;;;;5035135;28;20631;-82
2024/02/20 07:29:41;;;;;;;36.30;8.57;;;7.00;99.90;;;;;;5016772;28;20247;-82
2024/02/20 07:32:08;;;;;;;34.33;9.98;;;7.10;99.90;;;;;;5034692;28;20523;-83
2024/02/20 07:34:34;;;;;;;31.00;8.43;;;7.20;99.90;;;;;;5017237;28;20238;-82
2024/02/20 07:37:01;;;;;;;34.33;8.93;;;7.20;99.90;;;;;;5033432;28;20232;-82
2024/02/20 07:39:27;;;;;;;39.85;11.00;;;7.30;99.90;;;;;;5035317;28;20407;-82
2024/02/20 07:41:52;;;;;;;35.47;9.93;;;7.30;99.90;;;;;;5033539;28;20170;-82
2024/02/20 07:44:18;;;;;;;24.90;9.13;;;7.40;99.90;;;;;;5035882;28;20611;-82
2024/02/20 07:46:44;;;;;;;30.33;8.90;;;7.50;99.90;;;;;;5017068;28;20264;-82
2024/02/20 07:49:09;;;;;;;29.73;8.33;;;7.60;99.90;;;;;;5033930;28;20165;-82
2024/02/20 07:51:35;;;;;;;30.20;8.70;;;7.60;99.90;;;;;;5035412;28;20190;-83
2024/02/20 07:54:00;;;;;;;29.60;9.23;;;7.70;99.90;;;;;;5036754;28;20281;-82
2024/02/20 07:56:29;;;;;;;37.50;9.60;;;7.60;99.90;;;;;;5036157;28;20170;-83
2024/02/20 07:58:54;;;;;;;30.60;7.97;;;7.60;99.90;;;;;;5033328;28;20252;-82
2024/02/20 08:01:20;;;;;;;29.30;8.73;;;7.70;99.90;;;;;;5034748;28;20252;-82
2024/02/20 08:03:53;;;;;;;34.92;8.73;;;7.70;99.90;;;;;;5035158;28;20188;-82
2024/02/20 08:06:22;;;;;;;35.10;9.48;;;7.80;99.90;;;;;;5033274;28;20197;-81
2024/02/20 08:08:49;;;;;;;30.67;9.43;;;7.90;99.90;;;;;;5018380;28;20178;-82
2024/02/20 08:11:15;;;;;;;30.77;8.35;;;8.00;99.90;;;;;;5019963;28;20196;-82
2024/02/20 08:13:42;;;;;;;29.40;9.02;;;8.00;99.90;;;;;;5038069;28;20205;-81
2024/02/20 08:16:14;;;;;;;27.05;7.90;;;8.10;99.90;;;;;;5038136;28;20169;-81
2024/02/20 08:18:40;;;;;;;29.35;9.20;;;8.20;99.90;;;;;;5037982;28;20546;-82
2024/02/20 08:21:10;;;;;;;37.90;9.80;;;8.30;99.90;;;;;;5037770;28;20247;-82
2024/02/20 08:23:36;;;;;;;34.67;8.05;;;8.20;99.90;;;;;;5037688;28;20166;-82
2024/02/20 08:26:03;;;;;;;34.47;8.82;;;8.30;99.90;;;;;;5037723;28;20227;-82
2024/02/20 08:28:29;;;;;;;29.55;8.18;;;8.30;99.90;;;;;;5038318;28;20166;-82
2024/02/20 08:30:56;;;;;;;29.55;7.57;;;8.40;99.90;;;;;;5037260;28;20217;-82
2024/02/20 08:33:21;;;;;;;27.80;7.97;;;8.40;99.90;;;;;;5038397;28;20182;-82
2024/02/20 08:35:47;;;;;;;35.23;8.03;;;8.40;99.90;;;;;;5021073;28;20170;-82
2024/02/20 08:38:15;;;;;;;27.33;7.57;;;8.50;99.90;;;;;;5041394;28;20158;-82
2024/02/20 08:40:42;;;;;;;28.77;8.63;;;8.50;99.90;;;;;;5039728;28;20439;-82
2024/02/20 08:43:07;;;;;;;33.30;7.18;;;8.60;99.90;;;;;;5037369;28;20273;-82
2024/02/20 08:45:33;;;;;;;23.90;6.77;;;8.80;99.90;;;;;;5038610;28;20209;-82
2024/02/20 08:48:01;;;;;;;27.07;7.50;;;8.80;99.90;;;;;;5020999;28;20174;-82
2024/02/20 08:50:27;;;;;;;33.97;8.02;;;8.80;99.90;;;;;;5038768;28;20527;-82
2024/02/20 08:52:55;;;;;;;25.48;8.07;;;8.80;99.90;;;;;;5038448;28;20185;-82
2024/02/20 08:55:21;;;;;;;31.45;7.85;;;8.90;99.90;;;;;;5038362;28;20162;-82
2024/02/20 08:57:47;;;;;;;28.40;6.60;;;9.00;99.90;;;;;;5038464;28;20166;-82
2024/02/20 09:00:13;;;;;;;23.50;7.57;;;9.00;99.90;;;;;;5038173;28;20189;-82
2024/02/20 09:02:48;;;;;;;25.42;7.32;;;9.00;99.90;;;;;;5038174;28;20170;-82
2024/02/20 09:05:14;;;;;;;22.67;6.15;;;9.00;99.90;;;;;;5038533;28;20226;-82
2024/02/20 09:07:41;;;;;;;22.50;6.20;;;9.10;99.90;;;;;;5038189;28;20166;-82
2024/02/20 09:10:07;;;;;;;34.25;7.88;;;9.20;99.90;;;;;;5036931;28;20201;-82
2024/02/20 09:12:34;;;;;;;23.38;5.63;;;9.30;99.90;;;;;;5037548;28;20552;-82
2024/02/20 09:15:03;;;;;;;30.50;6.85;;;9.40;99.90;;;;;;5038087;28;20189;-82
2024/02/20 09:17:30;;;;;;;24.65;6.25;;;9.40;99.90;;;;;;5038039;28;20162;-82
2024/02/20 09:19:56;;;;;;;28.00;6.22;;;9.50;99.90;;;;;;5036256;28;20193;-82
2024/02/20 09:22:22;;;;;;;30.75;6.90;;;9.50;99.90;;;;;;5038294;28;20531;-82
2024/02/20 09:24:48;;;;;;;27.43;6.83;;;9.50;99.90;;;;;;5037285;28;20174;-82
2024/02/20 09:27:13;;;;;;;34.93;6.80;;;9.60;99.90;;;;;;5038360;28;20245;-82
2024/02/20 09:29:39;;;;;;;33.50;7.43;;;9.60;99.90;;;;;;5037899;28;20192;-82
2024/02/20 09:32:05;;;;;;;23.60;6.57;;;9.70;99.90;;;;;;5036319;28;20227;-82
2024/02/20 09:34:31;;;;;;;23.83;6.50;;;9.70;99.90;;;;;;5037730;28;20450;-80
2024/02/20 09:36:56;;;;;;;22.20;5.10;;;9.80;99.90;;;;;;5037725;28;20169;-82
2024/02/20 09:39:22;;;;;;;30.23;5.67;;;9.80;99.90;;;;;;5019524;28;20166;-82
2024/02/20 09:41:52;;;;;;;20.07;5.23;;;9.90;99.90;;;;;;5037186;28;20170;-82
2024/02/20 09:44:18;;;;;;;25.80;6.05;;;9.90;99.90;;;;;;5019895;28;20169;-82
2024/02/20 09:46:52;;;;;;;25.83;6.65;;;10.00;99.90;;;;;;5037166;28;20162;-82
2024/02/20 09:49:19;;;;;;;28.08;6.13;;;10.00;99.90;;;;;;5036694;28;20162;-81
2024/02/20 09:51:46;;;;;;;23.73;6.70;;;10.10;99.90;;;;;;5036471;28;20170;-81
2024/02/20 09:54:13;;;;;;;32.63;6.70;;;10.20;99.90;;;;;;5035664;28;20274;-81
2024/02/20 09:56:41;;;;;;;24.60;6.53;;;10.20;99.90;;;;;;5035278;28;20165;-81
2024/02/20 09:59:07;;;;;;;24.38;5.20;;;10.30;99.90;;;;;;5035431;28;20558;-81
2024/02/20 10:01:34;;;;;;;26.63;5.72;;;10.40;99.90;;;;;;5033907;28;20182;-81
2024/02/20 10:04:03;;;;;;;26.85;5.85;;;10.30;99.90;;;;;;5035246;28;20169;-82
2024/02/20 10:06:30;;;;;;;21.15;5.43;;;10.50;99.90;;;;;;5035310;28;20158;-82
2024/02/20 10:09:00;;;;;;;26.38;7.43;;;10.50;99.90;;;;;;5033793;28;20204;-81
2024/02/20 10:11:26;;;;;;;24.00;7.97;;;10.50;99.90;;;;;;5034910;28;20194;-81
2024/02/20 10:13:55;;;;;;;31.40;8.50;;;10.60;99.90;;;;;;5017121;28;20208;-82
2024/02/20 10:16:22;;;;;;;27.05;7.28;;;10.70;99.90;;;;;;5034922;28;20404;-80
2024/02/20 10:18:58;;;;;;;30.10;8.13;;;10.80;99.90;;;;;;5016969;28;20654;-81
2024/02/20 10:21:27;;;;;;;30.27;7.65;;;10.80;99.90;;;;;;5033193;28;20189;-81
2024/02/20 10:24:07;;;;;;;33.80;6.05;;;10.90;99.90;;;;;;5034498;28;20666;-81
2024/02/20 10:26:37;;;;;;;28.20;7.20;;;10.80;99.90;;;;;;5034466;28;20177;-81
2024/02/20 10:29:06;;;;;;;32.35;7.47;;;10.80;99.90;;;;;;5016982;28;20166;-81
2024/02/20 10:31:32;;;;;;;25.17;6.20;;;10.80;99.90;;;;;;5033529;28;20181;-81
2024/02/20 10:33:58;;;;;;;26.00;5.65;;;10.80;99.90;;;;;;5034527;28;20232;-82
2024/02/20 10:36:28;;;;;;;25.70;5.50;;;10.80;99.90;;;;;;5034658;28;20631;-81
2024/02/20 10:39:10;;;;;;;24.90;6.28;;;10.90;99.90;;;;;;5034849;28;20170;-82
2024/02/20 10:41:36;;;;;;;24.23;5.45;;;10.90;99.90;;;;;;5033425;28;20661;-81
2024/02/20 10:44:04;;;;;;;28.27;5.17;;;10.90;99.90;;;;;;5034926;28;20255;-81
2024/02/20 10:46:36;;;;;;;29.20;5.80;;;10.90;99.90;;;;;;5034398;28;20416;-82
2024/02/20 10:49:11;;;;;;;21.27;4.75;;;11.00;99.90;;;;;;5034241;28;20162;-81
2024/02/20 10:51:41;;;;;;;28.02;6.30;;;11.00;99.90;;;;;;5035342;28;20185;-81
2024/02/20 10:54:08;;;;;;;27.27;6.10;;;11.00;99.90;;;;;;5034802;28;20185;-82
2024/02/20 10:56:35;;;;;;;23.55;5.82;;;11.00;99.90;;;;;;5033475;28;20642;-82
2024/02/20 10:59:04;;;;;;;33.92;5.10;;;11.00;99.90;;;;;;5033253;28;20642;-82
2024/02/20 11:01:31;;;;;;;28.50;4.78;;;11.00;99.90;;;;;;5035992;28;20236;-82
2024/02/20 11:03:57;;;;;;;30.25;5.80;;;11.00;99.90;;;;;;5036685;28;20257;-82
2024/02/20 11:06:24;;;;;;;26.73;5.15;;;10.90;99.90;;;;;;5018377;28;20174;-82
2024/02/20 11:08:50;;;;;;;28.73;4.88;;;11.00;99.90;;;;;;5036526;28;20168;-82
2024/02/20 11:11:16;;;;;;;22.93;5.07;;;11.10;99.90;;;;;;5035924;28;20189;-82
2024/02/20 11:13:43;;;;;;;24.45;5.90;;;11.20;99.90;;;;;;5034401;28;20236;-82
2024/02/20 11:16:13;;;;;;;24.00;5.63;;;11.30;99.90;;;;;;5035289;28;20170;-82
2024/02/20 11:18:52;;;;;;;24.13;6.03;;;11.30;99.90;;;;;;5036443;28;20519;-82
2024/02/20 11:21:28;;;;;;;23.42;5.07;;;11.30;99.90;;;;;;5034585;28;20335;-82
2024/02/20 11:23:55;;;;;;;27.25;5.57;;;11.40;99.90;;;;;;5018104;28;20716;-82
2024/02/20 11:26:28;;;;;;;24.70;4.78;;;11.40;99.10;;;;;;5018240;28;20178;-82
2024/02/20 11:28:55;;;;;;;24.65;4.45;;;11.50;97.00;;;;;;5036002;28;20162;-82
2024/02/20 11:31:26;;;;;;;33.15;4.72;;;11.50;94.40;;;;;;5036168;28;20193;-82
2024/02/20 11:33:52;;;;;;;25.40;5.60;;;11.50;96.90;;;;;;5018073;28;20193;-82
2024/02/20 11:36:18;;;;;;;25.13;4.75;;;11.60;98.70;;;;;;5018294;28;20167;-82
2024/02/20 11:38:44;;;;;;;24.63;4.40;;;11.80;93.00;;;;;;5035369;28;20169;-83
2024/02/20 11:41:09;;;;;;;27.87;5.37;;;11.70;86.60;;;;;;5035997;28;20659;-83
2024/02/20 11:43:35;;;;;;;19.03;3.53;;;11.70;82.00;;;;;;5039058;28;20581;-83
2024/02/20 11:46:01;;;;;;;24.83;4.00;;;11.80;81.20;;;;;;5038529;28;20704;-83
2024/02/20 11:48:27;;;;;;;32.03;4.57;;;11.60;80.70;;;;;;5039775;28;20173;-82
2024/02/20 11:50:59;;;;;;;28.87;3.53;;;11.70;85.60;;;;;;5093416;22;20250;-82
2024/02/20 11:55:53;;;;;;;23.95;4.00;;;11.80;74.40;;;;;;4998585;28;20769;-81
2024/02/20 11:58:21;;;;;;;22.75;4.57;;;11.80;78.20;;;;;;4999817;28;20155;-81
2024/02/20 12:00:49;;;;;;;20.38;3.58;;;11.80;76.30;;;;;;4999498;28;20656;-81
2024/02/20 12:03:31;;;;;;;22.73;3.35;;;11.90;78.80;;;;;;4999979;28;20167;-81
2024/02/20 12:06:05;;;;;;;22.63;2.80;;;12.00;78.60;;;;;;5000644;28;20155;-80
2024/02/20 12:08:48;;;;;;;19.92;3.67;;;12.10;47.30;;;;;;5000347;28;20156;-81
2024/02/20 12:11:18;;;;;;;23.63;3.72;;;12.10;51.00;;;;;;4981994;28;20195;-81
2024/02/20 12:13:55;;;;;;;26.63;4.13;;;12.00;40.90;;;;;;4999183;28;20672;-80
2024/02/20 12:16:22;;;;;;;26.08;3.95;;;12.00;30.80;;;;;;4998233;28;20612;-80
2024/02/20 12:18:50;;;;;;;21.48;3.40;;;12.00;32.40;;;;;;4998439;28;20174;-80
2024/02/20 12:21:16;;;;;;;30.42;3.22;;;12.10;40.00;;;;;;4998274;28;20181;-80
2024/02/20 12:23:52;;;;;;;27.38;4.20;;;12.20;41.70;;;;;;4997708;28;20189;-80
2024/02/20 12:26:19;;;;;;;22.08;3.72;;;12.20;37.50;;;;;;4997988;28;20175;-80
2024/02/20 12:28:46;;;;;;;23.90;3.50;;;12.20;29.10;;;;;;4997654;28;20726;-81
2024/02/20 12:31:17;;;;;;;20.45;3.30;;;12.20;23.10;;;;;;4997560;28;20564;-80
2024/02/20 12:33:43;;;;;;;20.58;4.00;;;12.30;30.80;;;;;;4979940;28;20199;-79
2024/02/20 12:36:09;;;;;;;20.87;3.13;;;12.30;14.90;;;;;;4997571;28;20548;-80
2024/02/20 12:38:34;;;;;;;23.30;2.80;;;12.20;1.50;;;;;;4997593;28;20166;-80
2024/02/20 12:41:00;;;;;;;28.50;3.83;;;12.10;5.10;;;;;;4997065;28;20194;-80
2024/02/20 12:43:26;;;;;;;26.50;4.03;;;12.10;1.00;;;;;;4997453;28;20644;-80
2024/02/20 12:45:52;;;;;;;20.60;2.77;;;12.10;2.30;;;;;;4979632;28;20410;-80